world map with AYQ marked

AYQ - Airport

This information may not be accurate or current and is not valid for navigation or flight planning. No warranty of fitness for any purpose is made or implied.

flag of Northern Territoryflag of Australia

Donate via PayPal

Additional information is available on the NEW Great Circle Mapper

Location
City:  Yulara, Northern Territory, Australia
Near (Alt.):Uluru, Ayers Rock
Name:Ayers Rock Airport (Connellan Airport)
ICAO / IATA:YAYE / AYQ

Details
Type:Airport (Aerodrome, Airfield)
Latitude:25°11'10"S (-25.186110)
Longitude:130°58'32"E (130.975556)
Datum:WGS 1984
Elevation:1626 ft (496 m)
Runways:1
Longest:8527 × 98 ft (2599 × 30 m)

Time
Timezone:UTC+9:30 (DST+11:30)
Local Time:

Weather
METAR:YAYE  232200Z AUTO 08001KT 9999 // NCD 20/08 Q1019

Related Locations
Nearby:
Farthest:TAPT: 11469 mi / 18458 km
Barbuda [Coco Point Lodge], AG

Find:

   beyond  
but within

Other Information
Maps:
Sources:

  


 


Great Circle Mapper   Great Circle Mapper
Great Circle Mapper FAQ   Great Circle Mapper FAQ
  Karl's Home Page
KLSē   KLSē Home
   GC on Facebook
Airlines of the World   Airlines of the World
Donate via PayPal


Copyright © 2004-2017, Karl L. Swartz. All rights reserved.
All trademarks mentioned herein belong to their respective owners.

Please see credits for attribution and copyright information.

Karl Swartz <karl@kls2.com>
  Powered by FreeBSD
Valid HTML 4.01!
Labeled with ICRA
hCard Microformat
Geo Microformat